Terminal Aerodrome Forecast
Issued by NWS

Home | Current Version | Previous Version | Text Only | Print | Product List | Glossary On
Versions: 1 2 3 4 5 6 7 8 9 10 11 12 13 14 15
000
FTUS44 KBMX 290520
TAFMGM
TAF
KMGM 290520Z 2906/3006 09002KT P6SM SCT250
     FM291200 05002KT 5SM BR FEW250
     FM291500 30002KT P6SM SCT250=

USA.gov is the U.S. government's official web portal to all federal, state and local government web resources and services.